Time;durP1;ratioP1;P1;durP2;ratioP2;P2;SDS_P1;SDS_P2;PMS_P1;PMS_P2;Temp;Humidity;BMP_temperature;BMP_pressure;BME280_temperature;BME280_humidity;BME280_pressure;Samples;Min_cycle;Max_cycle;Signal;HPM_P1;HPM_P2
2022/03/05 00:00:16;;;;;;;19.98;12.43;;;;;;;;;;5030084;28;20131;-74
2022/03/05 00:02:42;;;;;;;17.42;12.73;;;;;;;;;;5028074;28;20041;-74
2022/03/05 00:05:09;;;;;;;18.38;12.55;;;;;;;;;;5029615;28;20048;-75
2022/03/05 00:07:36;;;;;;;20.42;12.32;;;;;;;;;;5028094;28;20053;-74
2022/03/05 00:10:02;;;;;;;16.73;11.95;;;;;;;;;;5029381;28;20038;-74
2022/03/05 00:12:28;;;;;;;17.30;12.20;;;;;;;;;;5020208;28;20037;-74
2022/03/05 00:14:54;;;;;;;15.52;11.82;;;;;;;;;;5025758;28;20087;-74
2022/03/05 00:17:20;;;;;;;16.08;12.18;;;;;;;;;;5027069;28;20037;-75
2022/03/05 00:19:46;;;;;;;19.02;12.65;;;;;;;;;;5025626;28;20033;-74
2022/03/05 00:22:12;;;;;;;20.58;12.55;;;;;;;;;;5026896;28;20539;-74
2022/03/05 00:24:39;;;;;;;17.60;12.15;;;;;;;;;;5021224;28;20053;-74
2022/03/05 00:27:05;;;;;;;17.48;12.43;;;;;;;;;;5028849;28;20038;-74
2022/03/05 00:29:31;;;;;;;16.55;12.05;;;;;;;;;;5029427;28;20056;-74
2022/03/05 00:31:57;;;;;;;18.33;12.95;;;;;;;;;;5027878;28;20037;-74
2022/03/05 00:34:23;;;;;;;18.80;13.43;;;;;;;;;;5028388;28;20041;-74
2022/03/05 00:36:49;;;;;;;19.40;13.52;;;;;;;;;;5011604;28;20568;-74
2022/03/05 00:39:15;;;;;;;20.92;14.13;;;;;;;;;;5028094;28;20041;-74
2022/03/05 00:41:41;;;;;;;17.00;12.45;;;;;;;;;;5028582;28;20452;-74
2022/03/05 00:44:07;;;;;;;20.75;13.77;;;;;;;;;;5028496;28;20071;-74
2022/03/05 00:46:33;;;;;;;18.75;12.32;;;;;;;;;;5029210;28;20037;-74
2022/03/05 00:48:59;;;;;;;19.27;12.77;;;;;;;;;;5027010;28;20103;-74
2022/03/05 00:51:25;;;;;;;19.13;13.65;;;;;;;;;;5028916;28;20030;-74
2022/03/05 00:53:51;;;;;;;17.52;13.13;;;;;;;;;;5028771;28;20038;-74
2022/03/05 00:56:17;;;;;;;18.10;13.05;;;;;;;;;;5029512;28;20049;-74
2022/03/05 00:58:43;;;;;;;18.70;12.85;;;;;;;;;;5027194;28;20085;-74
2022/03/05 01:01:09;;;;;;;20.05;13.35;;;;;;;;;;5029773;28;20056;-74
2022/03/05 01:03:35;;;;;;;17.13;12.65;;;;;;;;;;5028367;28;20491;-74
2022/03/05 01:06:01;;;;;;;21.88;13.57;;;;;;;;;;5029209;28;20495;-74
2022/03/05 01:08:28;;;;;;;17.63;12.98;;;;;;;;;;5011135;28;20045;-75
2022/03/05 01:10:54;;;;;;;17.05;12.70;;;;;;;;;;5027785;28;20041;-74
2022/03/05 01:13:20;;;;;;;22.15;13.73;;;;;;;;;;5026913;28;20555;-74
2022/03/05 01:15:46;;;;;;;19.67;13.02;;;;;;;;;;5028742;28;20276;-74
2022/03/05 01:18:12;;;;;;;18.17;12.73;;;;;;;;;;5029383;28;20077;-74
2022/03/05 01:20:38;;;;;;;17.10;12.85;;;;;;;;;;5029911;28;20053;-74
2022/03/05 01:23:04;;;;;;;24.85;13.23;;;;;;;;;;5032938;28;20045;-74
2022/03/05 01:25:30;;;;;;;19.40;13.55;;;;;;;;;;5032483;28;20073;-74
2022/03/05 01:27:56;;;;;;;20.55;13.73;;;;;;;;;;5036549;28;20052;-74
2022/03/05 01:30:22;;;;;;;18.17;13.25;;;;;;;;;;5031837;28;20041;-74
2022/03/05 01:32:48;;;;;;;21.20;13.93;;;;;;;;;;5016308;28;20045;-74
2022/03/05 01:35:14;;;;;;;21.42;12.32;;;;;;;;;;5031269;28;20037;-74
2022/03/05 01:37:40;;;;;;;18.25;13.15;;;;;;;;;;5033704;28;20049;-74
2022/03/05 01:40:06;;;;;;;22.08;13.55;;;;;;;;;;5031517;28;20053;-74
2022/03/05 01:42:32;;;;;;;22.45;14.02;;;;;;;;;;5029273;28;20183;-74
2022/03/05 01:44:58;;;;;;;19.15;12.77;;;;;;;;;;5031091;28;20125;-74
2022/03/05 01:47:25;;;;;;;20.80;13.55;;;;;;;;;;5031482;28;20558;-74
2022/03/05 01:49:51;;;;;;;21.25;13.25;;;;;;;;;;5014262;28;20092;-74
2022/03/05 01:52:17;;;;;;;18.50;13.30;;;;;;;;;;5031299;28;20049;-74
2022/03/05 01:54:43;;;;;;;20.35;13.57;;;;;;;;;;5031653;28;20038;-74
2022/03/05 01:57:11;;;;;;;19.75;13.95;;;;;;;;;;5028792;28;20068;-74
2022/03/05 01:59:37;;;;;;;17.90;12.45;;;;;;;;;;5016928;28;20041;-74
2022/03/05 02:02:03;;;;;;;20.83;13.85;;;;;;;;;;5014665;28;20073;-74
2022/03/05 02:04:29;;;;;;;20.58;13.13;;;;;;;;;;5025463;28;20033;-74
2022/03/05 02:06:55;;;;;;;19.25;13.05;;;;;;;;;;5032333;28;20056;-74
2022/03/05 02:09:22;;;;;;;18.88;13.05;;;;;;;;;;5032313;28;20073;-74
2022/03/05 02:11:48;;;;;;;20.75;13.95;;;;;;;;;;5014872;28;20060;-74
2022/03/05 02:14:20;;;;;;;21.10;13.30;;;;;;;;;;5032644;28;20444;-74
2022/03/05 02:16:47;;;;;;;21.13;13.60;;;;;;;;;;5016207;28;20041;-73
2022/03/05 02:19:13;;;;;;;18.33;12.98;;;;;;;;;;5031999;28;20049;-73
2022/03/05 02:21:39;;;;;;;18.33;12.07;;;;;;;;;;5031060;28;20126;-73
2022/03/05 02:24:05;;;;;;;20.10;12.57;;;;;;;;;;5032666;28;20385;-74
2022/03/05 02:26:31;;;;;;;19.52;12.77;;;;;;;;;;5014343;28;20048;-73
2022/03/05 02:28:57;;;;;;;17.42;12.25;;;;;;;;;;5029740;28;20107;-74
2022/03/05 02:31:24;;;;;;;18.58;12.80;;;;;;;;;;5029238;28;20057;-74
2022/03/05 02:33:55;;;;;;;16.92;11.73;;;;;;;;;;5035315;28;20051;-74
2022/03/05 02:36:22;;;;;;;17.08;11.60;;;;;;;;;;5033629;28;20438;-73
2022/03/05 02:38:48;;;;;;;18.95;12.23;;;;;;;;;;5030620;28;20059;-74
2022/03/05 02:41:14;;;;;;;18.38;12.77;;;;;;;;;;5029608;28;20124;-73
2022/03/05 02:43:40;;;;;;;19.17;11.93;;;;;;;;;;5032133;28;20072;-74
2022/03/05 02:46:06;;;;;;;15.93;11.90;;;;;;;;;;5030872;28;20041;-73
2022/03/05 02:48:35;;;;;;;18.05;11.98;;;;;;;;;;5014473;28;20044;-74
2022/03/05 02:51:02;;;;;;;19.52;11.98;;;;;;;;;;5033727;28;20090;-74
2022/03/05 02:53:29;;;;;;;17.52;11.43;;;;;;;;;;5030223;28;20049;-73
2022/03/05 02:55:55;;;;;;;16.02;12.15;;;;;;;;;;5024988;28;20048;-74
2022/03/05 02:58:21;;;;;;;18.67;12.23;;;;;;;;;;5028243;28;20045;-74
2022/03/05 03:00:47;;;;;;;19.73;12.40;;;;;;;;;;5029134;28;20142;-74
2022/03/05 03:03:13;;;;;;;17.85;12.13;;;;;;;;;;5031898;28;20135;-73
2022/03/05 03:05:39;;;;;;;18.30;11.75;;;;;;;;;;5028576;28;20060;-73
2022/03/05 03:08:06;;;;;;;15.07;10.95;;;;;;;;;;5033578;28;20033;-73
2022/03/05 03:10:32;;;;;;;16.73;11.35;;;;;;;;;;5028667;28;20041;-73
2022/03/05 03:12:58;;;;;;;19.13;11.07;;;;;;;;;;5044718;28;20506;-73
2022/03/05 03:15:25;;;;;;;18.60;11.77;;;;;;;;;;5027208;28;20037;-73
2022/03/05 03:17:52;;;;;;;16.55;11.45;;;;;;;;;;5014313;28;20050;-73
2022/03/05 03:20:20;;;;;;;16.17;10.98;;;;;;;;;;5030595;28;20134;-73
2022/03/05 03:22:46;;;;;;;17.88;11.90;;;;;;;;;;5030344;28;20365;-73
2022/03/05 03:25:12;;;;;;;19.75;11.40;;;;;;;;;;5030805;28;20060;-73
2022/03/05 03:27:38;;;;;;;17.20;10.70;;;;;;;;;;5030888;28;20041;-73
2022/03/05 03:30:05;;;;;;;15.90;10.90;;;;;;;;;;5029674;28;20049;-73
2022/03/05 03:32:31;;;;;;;18.02;11.00;;;;;;;;;;5030193;28;20069;-73
2022/03/05 03:34:58;;;;;;;17.75;11.45;;;;;;;;;;5029654;28;20049;-73
2022/03/05 03:37:28;;;;;;;18.52;11.73;;;;;;;;;;5030672;28;20033;-73
2022/03/05 03:39:55;;;;;;;17.13;10.68;;;;;;;;;;5026661;28;20103;-73
2022/03/05 03:42:22;;;;;;;15.38;11.00;;;;;;;;;;5030867;28;20038;-73
2022/03/05 03:44:48;;;;;;;18.20;11.23;;;;;;;;;;5012514;28;20048;-73
2022/03/05 03:47:14;;;;;;;18.95;11.23;;;;;;;;;;5030156;28;20037;-73
2022/03/05 03:49:40;;;;;;;17.05;11.05;;;;;;;;;;5027216;28;20068;-73
2022/03/05 03:52:06;;;;;;;17.70;11.43;;;;;;;;;;5027232;28;20132;-73
2022/03/05 03:54:32;;;;;;;20.83;11.50;;;;;;;;;;5030517;28;20030;-73
2022/03/05 03:56:58;;;;;;;15.68;10.48;;;;;;;;;;5030262;28;20050;-73
2022/03/05 03:59:24;;;;;;;17.75;11.40;;;;;;;;;;5028669;28;20124;-73
2022/03/05 04:01:50;;;;;;;17.73;10.38;;;;;;;;;;5009396;28;20045;-73
2022/03/05 04:04:17;;;;;;;16.20;11.20;;;;;;;;;;5026608;28;20053;-73
2022/03/05 04:09:27;;;;;;;17.75;10.90;;;;;;;;;;5035864;28;20037;-73
2022/03/05 04:11:53;;;;;;;19.45;10.68;;;;;;;;;;5028777;28;20049;-73
2022/03/05 04:14:19;;;;;;;17.60;10.98;;;;;;;;;;5028200;28;20120;-73
2022/03/05 04:16:45;;;;;;;19.45;11.40;;;;;;;;;;5030083;28;20060;-73
2022/03/05 04:19:12;;;;;;;17.23;11.23;;;;;;;;;;5026699;28;20492;-73
2022/03/05 04:21:38;;;;;;;19.88;11.05;;;;;;;;;;5010536;28;20052;-73
2022/03/05 04:24:04;;;;;;;20.92;11.95;;;;;;;;;;5026777;28;20071;-73
2022/03/05 04:26:30;;;;;;;19.25;11.50;;;;;;;;;;5026868;28;20041;-73
2022/03/05 04:28:57;;;;;;;18.38;11.07;;;;;;;;;;5027574;28;20045;-73
2022/03/05 04:31:23;;;;;;;21.25;11.82;;;;;;;;;;5013299;28;20044;-73
2022/03/05 04:33:49;;;;;;;21.48;11.20;;;;;;;;;;5032751;28;20056;-73
2022/03/05 04:36:15;;;;;;;17.80;11.10;;;;;;;;;;5028131;28;20037;-73
2022/03/05 04:38:41;;;;;;;17.70;10.77;;;;;;;;;;5012869;28;20037;-73
2022/03/05 04:41:07;;;;;;;18.63;11.35;;;;;;;;;;5028040;28;20041;-73
2022/03/05 04:43:33;;;;;;;19.70;11.88;;;;;;;;;;5026289;28;20048;-73
2022/03/05 04:45:59;;;;;;;17.08;10.85;;;;;;;;;;5029235;28;20550;-73
2022/03/05 04:48:25;;;;;;;18.10;11.10;;;;;;;;;;5027482;28;20597;-73
2022/03/05 04:50:52;;;;;;;20.40;11.60;;;;;;;;;;5027590;28;20705;-73
2022/03/05 04:53:20;;;;;;;17.45;11.00;;;;;;;;;;5028581;28;20042;-73
2022/03/05 04:55:47;;;;;;;18.83;11.45;;;;;;;;;;5029474;28;20076;-73
2022/03/05 04:58:13;;;;;;;20.58;11.68;;;;;;;;;;5028779;28;20045;-73
2022/03/05 05:00:39;;;;;;;19.73;12.02;;;;;;;;;;5027436;28;20435;-73
2022/03/05 05:03:05;;;;;;;19.05;12.10;;;;;;;;;;5028594;28;20067;-73
2022/03/05 05:05:31;;;;;;;18.83;11.68;;;;;;;;;;5029072;28;20095;-73
2022/03/05 05:07:57;;;;;;;19.17;11.38;;;;;;;;;;5031963;28;20151;-73
2022/03/05 05:10:23;;;;;;;18.75;10.65;;;;;;;;;;5012850;28;20033;-73
2022/03/05 05:12:50;;;;;;;19.10;11.15;;;;;;;;;;5022687;28;20092;-73
2022/03/05 05:15:16;;;;;;;17.48;11.50;;;;;;;;;;5028597;28;20123;-73
2022/03/05 05:17:42;;;;;;;19.48;12.40;;;;;;;;;;5026966;28;20601;-73
2022/03/05 05:20:09;;;;;;;18.02;10.95;;;;;;;;;;5027895;28;20049;-73
2022/03/05 05:22:35;;;;;;;21.38;11.90;;;;;;;;;;5027900;28;20041;-73
2022/03/05 05:25:02;;;;;;;19.55;11.23;;;;;;;;;;5030936;28;20049;-73
2022/03/05 05:27:28;;;;;;;18.45;11.48;;;;;;;;;;5030004;28;20053;-73
2022/03/05 05:29:55;;;;;;;17.63;11.35;;;;;;;;;;5027860;28;20112;-73
2022/03/05 05:32:21;;;;;;;20.98;12.00;;;;;;;;;;5012325;28;20042;-73
2022/03/05 05:34:47;;;;;;;19.95;12.07;;;;;;;;;;5028251;28;20086;-73
2022/03/05 05:37:13;;;;;;;18.52;11.25;;;;;;;;;;5028776;28;20076;-73
2022/03/05 05:39:39;;;;;;;18.30;11.88;;;;;;;;;;5021322;28;20049;-74
2022/03/05 05:42:05;;;;;;;19.88;11.43;;;;;;;;;;5027913;28;20049;-73
2022/03/05 05:44:31;;;;;;;23.00;11.90;;;;;;;;;;5027936;28;20041;-73
2022/03/05 05:46:57;;;;;;;19.58;12.15;;;;;;;;;;5028551;28;20057;-73
2022/03/05 05:49:23;;;;;;;20.92;12.57;;;;;;;;;;5025910;28;20112;-74
2022/03/05 05:51:49;;;;;;;20.60;12.15;;;;;;;;;;5028862;28;20056;-73
2022/03/05 05:54:15;;;;;;;19.17;11.05;;;;;;;;;;5027986;28;20037;-73
2022/03/05 05:56:41;;;;;;;19.63;11.68;;;;;;;;;;5011935;28;20038;-73
2022/03/05 05:59:07;;;;;;;18.73;11.18;;;;;;;;;;5022678;28;20053;-73
2022/03/05 06:01:34;;;;;;;21.63;11.60;;;;;;;;;;5023914;28;20044;-73
2022/03/05 06:04:00;;;;;;;22.83;12.70;;;;;;;;;;5026121;28;20073;-73
2022/03/05 06:06:27;;;;;;;22.52;12.10;;;;;;;;;;5012069;28;20065;-73
2022/03/05 06:08:53;;;;;;;17.23;11.00;;;;;;;;;;5029280;28;20033;-73
2022/03/05 06:11:19;;;;;;;21.77;12.30;;;;;;;;;;5032951;28;20176;-73
2022/03/05 06:13:45;;;;;;;21.13;12.23;;;;;;;;;;5031652;28;20044;-73
2022/03/05 06:16:12;;;;;;;19.45;11.65;;;;;;;;;;5034490;28;20033;-73
2022/03/05 06:18:38;;;;;;;21.70;12.10;;;;;;;;;;5030615;28;20041;-73
2022/03/05 06:21:05;;;;;;;19.33;11.57;;;;;;;;;;5032893;28;20036;-73
2022/03/05 06:23:31;;;;;;;22.27;12.15;;;;;;;;;;5032345;28;20046;-73
2022/03/05 06:25:57;;;;;;;20.90;11.38;;;;;;;;;;5008380;28;20037;-73
2022/03/05 06:28:23;;;;;;;20.27;11.93;;;;;;;;;;5030782;28;20120;-73
2022/03/05 06:30:50;;;;;;;22.33;11.68;;;;;;;;;;5029250;28;20124;-73
2022/03/05 06:33:16;;;;;;;20.40;11.63;;;;;;;;;;5031048;28;20095;-73
2022/03/05 06:35:42;;;;;;;23.95;12.02;;;;;;;;;;5030400;28;20037;-73
2022/03/05 06:38:08;;;;;;;20.52;11.45;;;;;;;;;;5032603;28;20053;-73
2022/03/05 06:40:34;;;;;;;18.25;11.45;;;;;;;;;;5026100;28;20041;-73
2022/03/05 06:43:00;;;;;;;21.77;11.88;;;;;;;;;;5030647;28;20136;-73
2022/03/05 06:45:26;;;;;;;17.98;10.75;;;;;;;;;;5031300;28;20053;-73
2022/03/05 06:47:52;;;;;;;20.38;11.35;;;;;;;;;;5032038;28;20080;-73
2022/03/05 06:50:18;;;;;;;19.35;11.20;;;;;;;;;;5028013;28;20486;-73
2022/03/05 06:52:45;;;;;;;18.55;10.73;;;;;;;;;;5025426;28;20510;-73
2022/03/05 06:55:15;;;;;;;18.02;10.43;;;;;;;;;;5030383;28;20113;-73
2022/03/05 06:57:41;;;;;;;17.70;10.95;;;;;;;;;;5025468;28;20076;-73
2022/03/05 07:00:08;;;;;;;19.40;11.43;;;;;;;;;;5026634;28;20506;-74
2022/03/05 07:02:34;;;;;;;19.08;11.00;;;;;;;;;;5020232;28;20052;-74
2022/03/05 07:05:00;;;;;;;18.50;11.15;;;;;;;;;;5005127;28;20530;-73
2022/03/05 07:07:27;;;;;;;14.93;10.02;;;;;;;;;;5027302;28;20069;-73
2022/03/05 07:09:53;;;;;;;19.80;10.93;;;;;;;;;;5009923;28;20546;-73
2022/03/05 07:12:19;;;;;;;17.80;10.82;;;;;;;;;;5019353;28;20478;-73
2022/03/05 07:14:48;;;;;;;17.90;11.07;;;;;;;;;;5005602;28;20152;-73
2022/03/05 07:17:18;;;;;;;17.52;10.88;;;;;;;;;;5023571;28;20499;-73
2022/03/05 07:19:44;;;;;;;20.70;12.13;;;;;;;;;;5023992;28;20505;-74
2022/03/05 07:22:10;;;;;;;17.67;11.30;;;;;;;;;;5024083;28;20542;-73
2022/03/05 07:24:36;;;;;;;19.27;11.77;;;;;;;;;;5022609;28;20594;-73
2022/03/05 07:27:02;;;;;;;22.00;11.57;;;;;;;;;;5009136;28;20412;-73
2022/03/05 07:29:28;;;;;;;18.20;11.40;;;;;;;;;;5022312;28;20052;-74
2022/03/05 07:31:55;;;;;;;19.35;12.30;;;;;;;;;;5022155;28;20947;-74
2022/03/05 07:34:21;;;;;;;22.77;11.48;;;;;;;;;;5003671;28;20495;-73
2022/03/05 07:36:47;;;;;;;26.73;17.20;;;;;;;;;;5022326;28;20037;-74
2022/03/05 07:39:13;;;;;;;22.90;12.77;;;;;;;;;;5021770;28;20048;-73
2022/03/05 07:41:39;;;;;;;20.00;13.05;;;;;;;;;;5023850;28;20057;-74
2022/03/05 07:44:06;;;;;;;21.83;12.20;;;;;;;;;;5024123;28;20052;-74
2022/03/05 07:46:33;;;;;;;19.33;12.43;;;;;;;;;;5017566;28;20827;-73
2022/03/05 07:48:59;;;;;;;21.15;12.20;;;;;;;;;;5022074;28;20404;-73
2022/03/05 07:51:26;;;;;;;21.08;12.18;;;;;;;;;;5023806;28;20415;-73
2022/03/05 07:53:52;;;;;;;20.60;12.60;;;;;;;;;;5025922;28;20049;-74
2022/03/05 07:56:19;;;;;;;21.00;12.65;;;;;;;;;;5023150;28;20041;-73
2022/03/05 07:58:45;;;;;;;22.00;13.15;;;;;;;;;;5021980;28;20443;-73
2022/03/05 08:01:11;;;;;;;20.40;12.90;;;;;;;;;;5022681;28;20038;-73
2022/03/05 08:03:37;;;;;;;22.27;13.18;;;;;;;;;;5022171;28;20396;-73
2022/03/05 08:06:03;;;;;;;21.77;13.15;;;;;;;;;;5022201;28;20041;-72
2022/03/05 08:08:29;;;;;;;21.10;13.73;;;;;;;;;;5022728;28;20490;-73
2022/03/05 08:10:56;;;;;;;21.85;12.88;;;;;;;;;;5021478;28;20045;-73
2022/03/05 08:13:22;;;;;;;23.58;13.43;;;;;;;;;;5019155;28;20440;-72
2022/03/05 08:15:49;;;;;;;24.33;13.23;;;;;;;;;;5021213;28;20072;-73
2022/03/05 08:18:15;;;;;;;21.40;13.35;;;;;;;;;;5023832;28;20522;-72
2022/03/05 08:20:41;;;;;;;23.20;14.75;;;;;;;;;;5022078;28;20065;-72
2022/03/05 08:23:07;;;;;;;22.10;13.10;;;;;;;;;;5015096;28;20427;-73
2022/03/05 08:25:33;;;;;;;25.50;13.98;;;;;;;;;;5024612;28;20041;-73
2022/03/05 08:27:59;;;;;;;20.15;13.15;;;;;;;;;;5019749;28;20159;-73
2022/03/05 08:30:25;;;;;;;24.90;14.45;;;;;;;;;;5021707;28;20042;-73
2022/03/05 08:32:51;;;;;;;22.55;13.80;;;;;;;;;;5018322;28;20093;-74
2022/03/05 08:35:18;;;;;;;22.98;14.77;;;;;;;;;;5026392;28;20033;-73
2022/03/05 08:37:44;;;;;;;27.52;16.00;;;;;;;;;;5027249;28;20038;-74
2022/03/05 08:40:11;;;;;;;24.90;14.70;;;;;;;;;;5028156;28;20041;-74
2022/03/05 08:42:37;;;;;;;24.92;15.35;;;;;;;;;;5028889;28;20515;-74
2022/03/05 08:45:04;;;;;;;24.92;15.98;;;;;;;;;;5030989;28;20041;-74
2022/03/05 08:47:30;;;;;;;25.90;15.85;;;;;;;;;;5029195;28;20029;-74
2022/03/05 08:49:56;;;;;;;25.40;15.43;;;;;;;;;;5032817;28;20115;-75
2022/03/05 08:52:23;;;;;;;28.80;16.95;;;;;;;;;;5028450;28;20048;-74
2022/03/05 08:54:49;;;;;;;25.27;15.52;;;;;;;;;;5030215;28;20091;-75
2022/03/05 08:57:15;;;;;;;26.33;15.85;;;;;;;;;;5026723;28;20045;-74
2022/03/05 08:59:42;;;;;;;28.52;15.38;;;;;;;;;;5028507;28;20454;-74
2022/03/05 09:02:20;;;;;;;25.55;16.08;;;;;;;;;;5012271;28;20069;-74
2022/03/05 09:04:46;;;;;;;30.05;15.02;;;;;;;;;;5029156;28;20124;-74
2022/03/05 09:07:12;;;;;;;25.55;15.68;;;;;;;;;;5029509;28;20049;-74
2022/03/05 09:09:38;;;;;;;28.27;16.52;;;;;;;;;;5028980;28;20049;-74
2022/03/05 09:12:05;;;;;;;26.02;16.80;;;;;;;;;;5028676;28;20072;-74
2022/03/05 09:14:31;;;;;;;25.85;16.67;;;;;;;;;;5028585;28;20107;-74
2022/03/05 09:16:58;;;;;;;26.15;15.45;;;;;;;;;;5029822;28;20037;-74
2022/03/05 09:19:24;;;;;;;28.60;17.63;;;;;;;;;;5012621;28;20041;-74
2022/03/05 09:21:50;;;;;;;25.38;16.10;;;;;;;;;;5029383;28;20057;-74
2022/03/05 09:24:16;;;;;;;25.92;16.33;;;;;;;;;;5028495;28;20041;-74
2022/03/05 09:26:42;;;;;;;27.20;16.50;;;;;;;;;;5026996;28;20041;-74
2022/03/05 09:29:08;;;;;;;26.85;16.40;;;;;;;;;;5027181;28;20037;-74
2022/03/05 09:31:34;;;;;;;26.90;16.40;;;;;;;;;;5026351;28;20172;-74
2022/03/05 09:34:00;;;;;;;27.63;16.65;;;;;;;;;;5027889;28;20048;-74
2022/03/05 09:36:26;;;;;;;28.10;16.83;;;;;;;;;;5025565;28;20037;-74
2022/03/05 09:38:52;;;;;;;26.10;16.85;;;;;;;;;;5031413;28;20044;-74
2022/03/05 09:41:19;;;;;;;26.17;16.42;;;;;;;;;;5029307;28;20046;-74
2022/03/05 09:43:45;;;;;;;26.58;16.50;;;;;;;;;;5032991;28;20037;-74
2022/03/05 09:46:11;;;;;;;27.77;17.80;;;;;;;;;;5016767;28;20171;-73
2022/03/05 09:48:37;;;;;;;29.92;18.38;;;;;;;;;;5032602;28;20690;-73
2022/03/05 09:51:03;;;;;;;33.10;18.13;;;;;;;;;;5031334;28;20030;-74
2022/03/05 09:53:30;;;;;;;31.02;17.02;;;;;;;;;;5032106;28;20107;-74
2022/03/05 09:55:56;;;;;;;27.77;17.80;;;;;;;;;;5036981;28;20041;-74
2022/03/05 09:58:22;;;;;;;33.83;18.75;;;;;;;;;;5034297;28;20376;-73
2022/03/05 10:00:48;;;;;;;28.85;18.15;;;;;;;;;;5028888;28;20053;-74
2022/03/05 10:03:15;;;;;;;28.92;18.73;;;;;;;;;;5032187;28;20043;-73
2022/03/05 10:05:41;;;;;;;27.35;16.70;;;;;;;;;;5032371;28;20120;-74
2022/03/05 10:08:08;;;;;;;28.58;17.70;;;;;;;;;;5032916;28;20037;-74
2022/03/05 10:10:44;;;;;;;25.90;17.00;;;;;;;;;;5015259;28;20038;-74
2022/03/05 10:13:19;;;;;;;29.02;17.30;;;;;;;;;;5036277;28;20124;-74
2022/03/05 10:15:46;;;;;;;26.63;17.38;;;;;;;;;;5032177;28;20030;-74
2022/03/05 10:18:12;;;;;;;29.13;17.80;;;;;;;;;;5033049;28;20032;-74
2022/03/05 10:20:50;;;;;;;30.65;18.38;;;;;;;;;;5031181;28;20044;-74
2022/03/05 10:23:17;;;;;;;29.48;19.00;;;;;;;;;;5030758;28;20069;-74
2022/03/05 10:25:51;;;;;;;30.27;19.02;;;;;;;;;;5031615;28;20045;-74
2022/03/05 10:28:19;;;;;;;29.70;18.02;;;;;;;;;;5027692;28;20034;-74
2022/03/05 10:30:46;;;;;;;28.75;18.13;;;;;;;;;;5031709;28;20057;-74
2022/03/05 10:33:28;;;;;;;29.88;18.83;;;;;;;;;;5031410;28;20045;-74
2022/03/05 10:35:55;;;;;;;31.27;18.40;;;;;;;;;;5022699;28;20072;-74
2022/03/05 10:38:21;;;;;;;29.40;18.48;;;;;;;;;;5024406;28;20045;-74
2022/03/05 10:40:53;;;;;;;30.95;18.05;;;;;;;;;;5028022;28;20106;-74
2022/03/05 10:43:19;;;;;;;29.85;18.25;;;;;;;;;;5029679;28;20128;-75
2022/03/05 10:45:51;;;;;;;28.58;17.60;;;;;;;;;;5028764;28;20046;-74
2022/03/05 10:48:29;;;;;;;28.77;17.90;;;;;;;;;;5028945;28;20121;-75
2022/03/05 10:51:03;;;;;;;29.00;18.15;;;;;;;;;;5012916;28;20042;-74
2022/03/05 10:53:40;;;;;;;32.10;18.73;;;;;;;;;;4996809;28;20114;-75
2022/03/05 10:56:21;;;;;;;28.38;18.20;;;;;;;;;;5030968;28;20063;-75
2022/03/05 10:59:01;;;;;;;27.63;17.95;;;;;;;;;;5026988;28;20046;-74
2022/03/05 11:01:27;;;;;;;31.48;18.85;;;;;;;;;;5013899;28;20045;-73
2022/03/05 11:03:54;;;;;;;27.75;17.08;;;;;;;;;;5023623;28;20049;-74
2022/03/05 11:06:21;;;;;;;29.27;18.35;;;;;;;;;;5014854;28;20041;-74
2022/03/05 11:08:47;;;;;;;29.55;19.05;;;;;;;;;;5030474;28;20557;-74
2022/03/05 11:11:15;;;;;;;26.88;17.67;;;;;;;;;;5014511;28;20033;-74
2022/03/05 11:13:41;;;;;;;29.13;18.50;;;;;;;;;;5029420;28;20030;-74
2022/03/05 11:16:07;;;;;;;28.83;18.63;;;;;;;;;;5030424;28;20116;-74
2022/03/05 11:18:33;;;;;;;31.35;18.02;;;;;;;;;;4996802;28;20052;-73
2022/03/05 11:21:01;;;;;;;25.77;17.35;;;;;;;;;;5031605;28;20191;-73
2022/03/05 11:23:27;;;;;;;28.77;18.40;;;;;;;;;;5025290;28;20056;-73
2022/03/05 11:25:54;;;;;;;27.25;17.55;;;;;;;;;;5041853;28;20045;-73
2022/03/05 11:28:22;;;;;;;27.10;18.30;;;;;;;;;;5027316;28;21806;-74
2022/03/05 11:30:53;;;;;;;27.60;17.80;;;;;;;;;;5024667;28;20042;-73
2022/03/05 11:33:26;;;;;;;26.33;17.85;;;;;;;;;;5029221;28;20095;-74
2022/03/05 11:35:52;;;;;;;;;;;;;;;;;;5023303;28;20060;-73
2022/03/05 11:38:33;;;;;;;27.00;17.85;;;;;;;;;;5024198;28;19917;-74
2022/03/05 11:40:59;;;;;;;26.90;18.35;;;;;;;;;;5017009;28;20162;-74
2022/03/05 11:43:26;;;;;;;29.38;18.77;;;;;;;;;;5007687;28;20038;-74
2022/03/05 11:46:02;;;;;;;29.55;18.85;;;;;;;;;;5024337;28;20044;-74
2022/03/05 11:48:30;;;;;;;29.30;18.08;;;;;;;;;;5036756;28;20053;-74
2022/03/05 11:50:57;;;;;;;26.27;17.65;;;;;;;;;;5022754;28;20037;-74
2022/03/05 11:53:23;;;;;;;25.67;17.85;;;;;;;;;;5020685;28;20065;-74
2022/03/05 11:55:49;;;;;;;26.20;18.15;;;;;;;;;;5021688;28;20038;-74
2022/03/05 11:58:20;;;;;;;25.85;17.17;;;;;;;;;;5020516;28;20042;-74
2022/03/05 12:00:49;;;;;;;27.95;18.33;;;;;;;;;;5006403;28;20057;-74
2022/03/05 12:03:34;;;;;;;27.75;18.50;;;;;;;;;;5039133;28;20048;-74
2022/03/05 12:06:02;;;;;;;26.35;18.30;;;;;;;;;;5020144;28;20053;-74
2022/03/05 12:08:28;;;;;;;24.63;17.90;;;;;;;;;;5024722;28;20156;-74
2022/03/05 12:11:12;;;;;;;25.48;18.05;;;;;;;;;;5028100;28;20061;-74
2022/03/05 12:13:41;;;;;;;25.92;17.25;;;;;;;;;;5031241;28;20036;-74
2022/03/05 12:16:20;;;;;;;27.05;17.20;;;;;;;;;;5025829;28;20037;-74
2022/03/05 12:18:46;;;;;;;27.63;18.23;;;;;;;;;;5026836;28;20108;-74
2022/03/05 12:21:13;;;;;;;28.38;18.45;;;;;;;;;;5030088;28;20041;-74
2022/03/05 12:23:39;;;;;;;25.33;17.85;;;;;;;;;;5030021;28;20038;-74
2022/03/05 12:26:05;;;;;;;23.63;17.80;;;;;;;;;;5030130;28;20041;-75
2022/03/05 12:28:42;;;;;;;23.60;17.20;;;;;;;;;;5014311;28;20041;-74
2022/03/05 12:31:18;;;;;;;24.10;17.35;;;;;;;;;;5013766;28;20087;-74
2022/03/05 12:33:47;;;;;;;27.80;18.52;;;;;;;;;;5013572;28;20041;-74
2022/03/05 12:36:17;;;;;;;28.60;18.75;;;;;;;;;;5029537;28;20049;-74
2022/03/05 12:38:44;;;;;;;24.80;17.80;;;;;;;;;;5030037;28;20041;-74
2022/03/05 12:41:10;;;;;;;24.83;18.48;;;;;;;;;;5035529;28;20045;-74
2022/03/05 12:43:41;;;;;;;26.67;17.42;;;;;;;;;;5029336;28;20053;-74
2022/03/05 12:46:07;;;;;;;24.52;17.55;;;;;;;;;;5030246;28;20048;-74
2022/03/05 12:48:34;;;;;;;23.02;17.65;;;;;;;;;;5030814;28;20128;-74
2022/03/05 12:51:00;;;;;;;23.65;17.73;;;;;;;;;;5030787;28;20034;-74
2022/03/05 12:53:26;;;;;;;25.05;18.13;;;;;;;;;;5031078;28;20042;-74
2022/03/05 12:55:52;;;;;;;26.05;18.30;;;;;;;;;;5014686;28;20040;-75
2022/03/05 12:58:26;;;;;;;27.95;18.92;;;;;;;;;;5029042;28;20049;-74
2022/03/05 13:00:53;;;;;;;23.80;17.77;;;;;;;;;;5027665;28;20049;-74
2022/03/05 13:03:20;;;;;;;23.77;17.75;;;;;;;;;;5030445;28;20165;-75
2022/03/05 13:05:47;;;;;;;26.55;19.08;;;;;;;;;;5027789;28;20045;-74
2022/03/05 13:08:21;;;;;;;23.73;18.30;;;;;;;;;;5013331;28;20107;-74
2022/03/05 13:10:48;;;;;;;23.08;17.88;;;;;;;;;;5026627;28;20103;-75
2022/03/05 13:13:14;;;;;;;26.15;18.70;;;;;;;;;;5029754;28;20036;-74
2022/03/05 13:15:41;;;;;;;24.98;17.98;;;;;;;;;;5030773;28;20387;-75
2022/03/05 13:18:07;;;;;;;25.70;18.73;;;;;;;;;;5033339;28;20080;-74
2022/03/05 13:20:33;;;;;;;25.23;18.98;;;;;;;;;;5036665;28;20072;-75
2022/03/05 13:22:59;;;;;;;25.58;19.13;;;;;;;;;;5031693;28;20099;-75
2022/03/05 13:25:27;;;;;;;26.52;18.65;;;;;;;;;;5027260;28;20056;-75
2022/03/05 13:27:53;;;;;;;25.15;19.52;;;;;;;;;;5026183;28;20106;-75
2022/03/05 13:30:21;;;;;;;24.52;19.15;;;;;;;;;;5027191;28;20033;-74
2022/03/05 13:32:48;;;;;;;26.80;18.85;;;;;;;;;;5024790;28;20041;-75
2022/03/05 13:35:15;;;;;;;25.67;19.50;;;;;;;;;;5023418;28;20117;-74
2022/03/05 13:37:41;;;;;;;24.95;19.15;;;;;;;;;;5042667;28;20087;-75
2022/03/05 13:40:08;;;;;;;21.92;17.95;;;;;;;;;;5025771;28;20037;-75
2022/03/05 13:42:36;;;;;;;23.45;17.95;;;;;;;;;;5025505;28;20045;-73
2022/03/05 13:45:04;;;;;;;23.63;18.60;;;;;;;;;;5023366;28;20084;-75
2022/03/05 13:47:31;;;;;;;24.95;18.40;;;;;;;;;;5024551;28;20034;-75
2022/03/05 13:50:04;;;;;;;23.80;18.80;;;;;;;;;;5010754;28;20041;-75
2022/03/05 13:52:33;;;;;;;23.30;18.10;;;;;;;;;;5026406;28;20061;-75
2022/03/05 13:55:07;;;;;;;24.20;18.05;;;;;;;;;;5011240;28;20045;-75
2022/03/05 13:57:34;;;;;;;24.52;18.63;;;;;;;;;;5025572;28;20057;-74
2022/03/05 14:00:07;;;;;;;24.13;18.55;;;;;;;;;;5023824;28;20045;-75
2022/03/05 14:02:33;;;;;;;;;;;;;;;;;;5025589;28;20049;-75
2022/03/05 14:05:02;;;;;;;24.92;18.88;;;;;;;;;;5023428;28;19924;-75
2022/03/05 14:07:30;;;;;;;24.60;18.45;;;;;;;;;;5010895;28;20042;-73
2022/03/05 14:09:56;;;;;;;22.75;17.65;;;;;;;;;;5027993;28;20045;-75
2022/03/05 14:12:27;;;;;;;22.42;17.67;;;;;;;;;;5028195;28;20048;-75
2022/03/05 14:14:59;;;;;;;23.88;18.08;;;;;;;;;;5024133;28;20037;-75
2022/03/05 14:17:25;;;;;;;21.55;17.52;;;;;;;;;;5008729;28;20034;-75
2022/03/05 14:20:03;;;;;;;22.63;16.88;;;;;;;;;;5008399;28;20431;-75